Time;durP1;ratioP1;P1;durP2;ratioP2;P2;SDS_P1;SDS_P2;PMS_P1;PMS_P2;Temp;Humidity;BMP_temperature;BMP_pressure;BME280_temperature;BME280_humidity;BME280_pressure;Samples;Min_cycle;Max_cycle;Signal;HPM_P1;HPM_P2
2023/03/24 00:01:09;;;;;;;15.00;4.43;;;6.10;99.90;;;;;;5069046;28;20497;-75
2023/03/24 00:03:36;;;;;;;14.90;3.67;;;6.10;99.90;;;;;;5069841;28;20435;-75
2023/03/24 00:06:07;;;;;;;21.33;4.63;;;6.10;99.90;;;;;;5069248;28;20048;-74
2023/03/24 00:08:37;;;;;;;11.10;4.22;;;6.10;99.90;;;;;;5070399;28;20580;-75
2023/03/24 00:11:08;;;;;;;16.55;4.65;;;6.10;99.90;;;;;;5092114;28;20060;-75
2023/03/24 00:13:37;;;;;;;17.67;5.03;;;6.10;99.90;;;;;;5052586;28;20416;-76
2023/03/24 00:16:08;;;;;;;11.13;4.30;;;6.10;99.90;;;;;;5070087;28;20048;-76
2023/03/24 00:18:35;;;;;;;12.00;3.78;;;6.20;99.90;;;;;;5070099;28;20053;-76
2023/03/24 00:21:03;;;;;;;12.30;4.13;;;6.20;99.90;;;;;;5065097;28;20079;-75
2023/03/24 00:23:32;;;;;;;22.80;4.60;;;6.20;99.90;;;;;;5069350;28;20067;-75
2023/03/24 00:26:03;;;;;;;12.80;4.30;;;6.20;99.90;;;;;;5070242;28;20072;-75
2023/03/24 00:28:33;;;;;;;23.27;4.80;;;6.20;99.90;;;;;;5046270;28;20045;-75
2023/03/24 00:31:02;;;;;;;22.65;4.68;;;6.10;99.90;;;;;;5059486;28;20084;-74
2023/03/24 00:33:30;;;;;;;19.08;4.60;;;6.10;99.90;;;;;;5068885;28;20064;-75
2023/03/24 00:35:59;;;;;;;14.02;3.72;;;6.00;99.90;;;;;;5067271;28;20047;-75
2023/03/24 00:38:27;;;;;;;18.63;4.78;;;6.00;99.90;;;;;;5069743;28;20048;-75
2023/03/24 00:40:55;;;;;;;19.48;4.45;;;5.90;99.90;;;;;;5055013;28;20079;-75
2023/03/24 00:43:24;;;;;;;19.17;5.25;;;5.80;99.90;;;;;;5050322;28;20773;-78
2023/03/24 00:46:00;;;;;;;15.77;3.47;;;5.80;99.90;;;;;;5067468;28;20049;-75
2023/03/24 00:48:29;;;;;;;11.57;4.00;;;5.80;99.90;;;;;;5066602;28;20094;-76
2023/03/24 00:50:57;;;;;;;15.27;4.18;;;5.80;99.90;;;;;;5048195;28;20076;-76
2023/03/24 00:53:28;;;;;;;13.40;4.50;;;5.80;99.90;;;;;;5066209;28;20067;-76
2023/03/24 00:55:57;;;;;;;14.02;4.57;;;5.80;99.90;;;;;;5069943;28;20052;-75
2023/03/24 00:58:33;;;;;;;12.32;3.95;;;5.70;99.90;;;;;;5091184;28;20484;-75
2023/03/24 01:01:00;;;;;;;22.77;4.60;;;5.70;99.90;;;;;;5080304;28;20354;-76
2023/03/24 01:03:28;;;;;;;19.80;4.13;;;5.70;99.90;;;;;;5051009;28;20049;-75
2023/03/24 01:06:01;;;;;;;19.00;5.15;;;5.70;99.90;;;;;;5069351;28;20052;-75
2023/03/24 01:08:29;;;;;;;20.65;5.53;;;5.70;99.90;;;;;;5070048;28;20045;-76
2023/03/24 01:10:59;;;;;;;32.58;6.10;;;5.70;99.90;;;;;;5068226;28;20044;-76
2023/03/24 01:13:30;;;;;;;18.60;5.45;;;5.70;99.90;;;;;;5067839;28;20044;-76
2023/03/24 01:15:58;;;;;;;25.48;5.47;;;5.80;99.90;;;;;;5052290;28;20052;-75
2023/03/24 01:18:26;;;;;;;22.10;5.28;;;5.80;99.90;;;;;;5065826;28;20660;-76
2023/03/24 01:20:54;;;;;;;28.45;5.07;;;5.90;99.90;;;;;;5026524;28;20056;-75
2023/03/24 01:23:24;;;;;;;18.70;4.88;;;5.90;99.90;;;;;;5051858;28;20048;-78
2023/03/24 01:25:53;;;;;;;21.30;5.38;;;5.80;99.90;;;;;;5067728;28;20048;-78
2023/03/24 01:28:26;;;;;;;25.25;5.10;;;5.80;99.90;;;;;;5070011;28;20052;-79
2023/03/24 01:30:55;;;;;;;21.33;5.45;;;5.80;99.90;;;;;;5071363;28;20055;-79
2023/03/24 01:33:23;;;;;;;24.83;5.80;;;5.70;99.90;;;;;;5070815;28;20144;-79
2023/03/24 01:35:50;;;;;;;24.65;4.35;;;5.70;99.90;;;;;;5049299;28;20390;-81
2023/03/24 01:38:18;;;;;;;17.70;4.15;;;5.70;99.90;;;;;;5069539;28;20098;-79
2023/03/24 01:40:47;;;;;;;17.27;5.40;;;5.70;99.90;;;;;;5054469;28;20032;-78
2023/03/24 01:43:20;;;;;;;31.42;5.80;;;5.80;99.90;;;;;;5072499;28;20055;-77
2023/03/24 01:46:17;;;;;;;23.67;5.53;;;5.70;99.90;;;;;;5035606;28;20052;-77
2023/03/24 01:48:51;;;;;;;25.10;6.35;;;5.60;99.90;;;;;;5046738;28;20094;-78
2023/03/24 01:51:23;;;;;;;29.85;6.15;;;5.60;99.90;;;;;;5054374;28;20054;-78
2023/03/24 01:53:56;;;;;;;18.07;4.83;;;5.50;99.90;;;;;;5065654;28;20072;-78
2023/03/24 01:56:25;;;;;;;21.02;6.15;;;5.50;99.90;;;;;;5069813;28;20047;-75
2023/03/24 01:58:58;;;;;;;13.55;5.47;;;5.50;99.90;;;;;;5072149;28;20058;-75
2023/03/24 02:01:37;;;;;;;28.25;5.78;;;5.50;99.90;;;;;;5070183;28;20053;-75
2023/03/24 02:04:21;;;;;;;22.10;5.25;;;5.40;99.90;;;;;;5048217;28;20045;-75
2023/03/24 02:06:50;;;;;;;15.52;4.40;;;5.40;99.90;;;;;;5058531;28;20044;-78
2023/03/24 02:09:17;;;;;;;22.10;5.25;;;5.40;99.90;;;;;;5072974;28;20052;-79
2023/03/24 02:11:46;;;;;;;17.25;4.65;;;5.40;99.90;;;;;;5071899;28;20049;-78
2023/03/24 02:14:14;;;;;;;17.42;5.20;;;5.50;99.90;;;;;;5063177;28;20074;-78
2023/03/24 02:17:05;;;;;;;19.08;5.10;;;5.50;99.90;;;;;;5074338;28;20136;-78
2023/03/24 02:20:12;;;;;;;12.18;4.93;;;5.50;99.90;;;;;;5071020;28;20056;-78
2023/03/24 02:23:32;;;;;;;19.55;4.45;;;5.50;99.90;;;;;;5073168;28;20052;-78
2023/03/24 02:27:00;;;;;;;15.32;4.82;;;5.50;99.90;;;;;;5014489;28;20045;-78
2023/03/24 02:30:31;;;;;;;18.35;4.72;;;5.50;99.90;;;;;;5049064;28;20052;-78
2023/03/24 02:33:54;;;;;;;18.65;4.68;;;5.50;99.90;;;;;;5032032;28;20094;-78
2023/03/24 02:37:33;;;;;;;14.80;4.82;;;5.50;99.90;;;;;;5063163;28;20532;-79
2023/03/24 02:40:20;;;;;;;17.60;5.30;;;5.50;99.90;;;;;;5040661;28;20057;-78
2023/03/24 02:43:02;;;;;;;23.85;7.03;;;5.50;99.90;;;;;;5054496;28;20064;-78
2023/03/24 02:45:35;;;;;;;;;;;5.50;99.90;;;;;;5075916;28;20551;-78
2023/03/24 02:48:21;;;;;;;18.40;5.40;;;5.50;99.90;;;;;;5084578;28;19924;-78
2023/03/24 02:50:54;;;;;;;15.27;5.28;;;5.50;99.90;;;;;;5058817;28;20044;-78
2023/03/24 02:53:30;;;;;;;14.27;4.93;;;5.40;99.90;;;;;;5038504;28;20162;-79
2023/03/24 02:56:28;;;;;;;19.55;7.22;;;5.40;99.90;;;;;;5071730;28;20056;-78
2023/03/24 02:59:06;;;;;;;25.67;6.03;;;5.40;99.90;;;;;;5068493;28;20040;-78
2023/03/24 03:01:43;;;;;;;13.95;5.60;;;5.30;99.90;;;;;;5054861;28;20565;-81
2023/03/24 03:04:49;;;;;;;24.60;5.93;;;5.30;99.90;;;;;;5027020;28;20060;-79
2023/03/24 03:07:22;;;;;;;24.70;5.82;;;5.40;99.90;;;;;;5052128;28;20056;-78
2023/03/24 03:09:56;;;;;;;26.08;6.15;;;5.30;99.90;;;;;;5053310;28;20052;-78
2023/03/24 03:12:28;;;;;;;24.27;6.50;;;5.30;99.90;;;;;;5069454;28;20099;-78
2023/03/24 03:15:01;;;;;;;18.73;6.27;;;5.20;99.90;;;;;;5060754;28;20041;-79
2023/03/24 03:17:37;;;;;;;22.38;7.03;;;5.20;99.90;;;;;;5072476;28;20053;-78
2023/03/24 03:20:10;;;;;;;22.52;7.03;;;5.20;99.90;;;;;;5069226;28;20568;-78
2023/03/24 03:22:43;;;;;;;19.10;6.57;;;5.10;99.90;;;;;;5067031;28;20056;-79
2023/03/24 03:25:14;;;;;;;24.38;7.20;;;5.10;99.90;;;;;;5071434;28;20080;-78
2023/03/24 03:27:45;;;;;;;24.23;6.97;;;5.10;99.90;;;;;;5049473;28;20041;-78
2023/03/24 03:30:19;;;;;;;22.35;7.07;;;5.10;99.90;;;;;;5069938;28;20055;-79
2023/03/24 03:32:53;;;;;;;24.27;7.25;;;5.10;99.90;;;;;;5069947;28;20500;-79
2023/03/24 03:35:27;;;;;;;32.88;7.55;;;5.10;99.90;;;;;;5067600;28;20055;-77
2023/03/24 03:38:07;;;;;;;26.85;7.10;;;5.10;99.90;;;;;;5068688;28;20048;-78
2023/03/24 03:40:41;;;;;;;33.50;9.38;;;5.10;99.90;;;;;;5059064;28;20509;-78
2023/03/24 03:43:17;;;;;;;43.60;8.32;;;5.20;99.90;;;;;;5039438;28;20064;-78
2023/03/24 03:45:46;;;;;;;25.67;7.28;;;5.20;99.90;;;;;;5067846;28;20048;-79
2023/03/24 03:48:16;;;;;;;26.75;7.22;;;5.20;99.90;;;;;;5054126;28;20489;-78
2023/03/24 03:50:44;;;;;;;26.02;7.93;;;5.10;99.90;;;;;;5054027;28;20052;-79
2023/03/24 03:53:15;;;;;;;24.70;8.35;;;5.10;99.90;;;;;;5063857;28;20059;-80
2023/03/24 03:55:44;;;;;;;17.75;8.07;;;5.20;99.90;;;;;;5068639;28;20057;-80
2023/03/24 03:58:12;;;;;;;21.15;8.75;;;5.20;99.90;;;;;;5070732;28;20425;-79
2023/03/24 04:00:57;;;;;;;25.67;7.88;;;5.20;99.90;;;;;;5052180;28;20044;-79
2023/03/24 04:04:12;;;;;;;18.83;8.32;;;5.30;99.90;;;;;;5069245;28;20048;-79
2023/03/24 04:07:24;;;;;;;25.67;10.73;;;5.30;99.90;;;;;;5047911;28;20044;-79
2023/03/24 04:10:18;;;;;;;36.13;16.75;;;5.30;99.90;;;;;;5062067;28;20056;-78
2023/03/24 04:13:05;;;;;;;27.38;13.82;;;5.30;99.90;;;;;;5034201;28;20076;-78
2023/03/24 04:15:57;;;;;;;28.75;15.20;;;5.40;99.90;;;;;;5067310;28;20052;-78
2023/03/24 04:19:09;;;;;;;29.58;15.00;;;5.40;99.90;;;;;;5075431;28;20040;-79
2023/03/24 04:22:01;;;;;;;27.48;13.93;;;5.40;99.90;;;;;;5075557;28;20520;-78
2023/03/24 04:24:44;;;;;;;26.63;14.65;;;5.40;99.90;;;;;;5068185;28;20662;-77
2023/03/24 04:27:27;;;;;;;26.50;13.88;;;5.40;99.90;;;;;;5049869;28;20186;-77
2023/03/24 04:30:08;;;;;;;29.05;15.93;;;5.40;99.90;;;;;;5068607;28;20051;-78
2023/03/24 04:32:46;;;;;;;30.23;15.57;;;5.40;99.90;;;;;;5060039;28;20130;-78
2023/03/24 04:35:30;;;;;;;32.90;15.25;;;5.50;99.90;;;;;;5067493;28;20044;-78
2023/03/24 04:38:37;;;;;;;28.42;14.40;;;5.50;99.90;;;;;;5004842;28;20146;-77
2023/03/24 04:41:19;;;;;;;31.75;17.02;;;5.50;99.90;;;;;;4984896;28;20477;-76
2023/03/24 04:44:10;;;;;;;38.85;16.02;;;5.50;99.90;;;;;;5031940;28;20509;-77
2023/03/24 04:46:50;;;;;;;37.80;17.73;;;5.50;99.90;;;;;;5061095;28;20513;-77
2023/03/24 04:49:23;;;;;;;37.67;17.35;;;5.50;99.90;;;;;;5051396;28;20071;-78
2023/03/24 04:51:51;;;;;;;29.70;16.42;;;5.60;99.90;;;;;;5050937;28;20059;-78
2023/03/24 04:54:23;;;;;;;36.35;18.40;;;5.60;99.90;;;;;;5051480;28;20040;-77
2023/03/24 04:56:57;;;;;;;35.20;17.38;;;5.60;99.90;;;;;;5068559;28;20044;-80
2023/03/24 04:59:30;;;;;;;44.13;18.17;;;5.60;99.90;;;;;;5066979;28;20046;-79
2023/03/24 05:01:58;;;;;;;47.92;18.83;;;5.70;99.90;;;;;;5033824;28;20101;-80
2023/03/24 05:04:44;;;;;;;32.55;17.27;;;5.80;99.90;;;;;;5067760;28;20045;-78
2023/03/24 05:07:22;;;;;;;39.17;17.52;;;5.90;99.90;;;;;;5066378;28;20106;-78
2023/03/24 05:09:54;;;;;;;40.05;16.83;;;5.90;99.90;;;;;;5033069;28;20045;-78
2023/03/24 05:12:22;;;;;;;43.55;17.25;;;6.00;99.90;;;;;;5038473;28;20075;-80
2023/03/24 05:15:16;;;;;;;47.03;17.17;;;6.00;99.90;;;;;;5055264;28;20041;-79
2023/03/24 05:17:46;;;;;;;33.08;16.88;;;6.10;99.90;;;;;;5071902;28;20144;-78
2023/03/24 05:20:15;;;;;;;36.53;17.15;;;6.10;99.90;;;;;;5047219;28;20097;-77
2023/03/24 05:22:48;;;;;;;34.85;18.23;;;6.20;99.90;;;;;;5067079;28;20147;-80
2023/03/24 05:25:16;;;;;;;37.97;17.35;;;6.20;99.90;;;;;;5037855;28;20079;-80
2023/03/24 05:27:44;;;;;;;37.90;17.92;;;6.30;99.90;;;;;;5071439;28;20060;-79
2023/03/24 05:30:25;;;;;;;37.05;18.63;;;6.40;99.90;;;;;;5070875;28;20405;-81
2023/03/24 05:33:00;;;;;;;48.88;19.17;;;6.50;99.90;;;;;;5057879;28;20076;-81
2023/03/24 05:35:29;;;;;;;49.10;20.50;;;6.60;99.90;;;;;;5069976;28;20101;-81
2023/03/24 05:37:57;;;;;;;47.30;22.23;;;6.60;99.90;;;;;;5064688;28;20163;-82
2023/03/24 05:40:25;;;;;;;40.13;19.73;;;6.60;99.90;;;;;;5047876;28;20057;-75
2023/03/24 05:43:02;;;;;;;40.25;19.40;;;6.60;99.90;;;;;;5050221;28;20048;-76
2023/03/24 05:45:34;;;;;;;32.63;19.23;;;6.60;99.90;;;;;;5052587;28;20079;-76
2023/03/24 05:48:04;;;;;;;37.70;19.52;;;6.60;99.90;;;;;;5080192;28;20048;-81
2023/03/24 05:50:54;;;;;;;38.78;19.98;;;6.60;99.90;;;;;;5049056;28;20583;-78
2023/03/24 05:53:22;;;;;;;36.45;19.92;;;6.70;99.90;;;;;;5040775;28;20513;-80
2023/03/24 05:56:10;;;;;;;44.25;20.50;;;6.70;99.90;;;;;;5073162;28;20049;-80
2023/03/24 05:58:56;;;;;;;42.38;21.17;;;6.80;99.90;;;;;;5061382;28;20127;-79
2023/03/24 06:01:31;;;;;;;36.88;20.50;;;6.90;99.90;;;;;;5064983;28;20052;-80
2023/03/24 06:04:12;;;;;;;36.42;19.92;;;7.00;99.90;;;;;;5052992;28;20136;-75
2023/03/24 06:06:44;;;;;;;46.53;20.15;;;7.20;99.90;;;;;;5051682;28;20104;-77
2023/03/24 06:09:15;;;;;;;;;;;7.30;99.90;;;;;;5065091;28;20114;-75
2023/03/24 06:11:43;;;;;;;45.75;20.13;;;7.30;99.90;;;;;;5054248;28;19956;-78
2023/03/24 06:14:11;;;;;;;39.38;19.42;;;7.30;99.90;;;;;;5036265;28;20515;-78
2023/03/24 06:16:52;;;;;;;41.20;20.05;;;7.30;99.90;;;;;;5044566;28;20490;-79
2023/03/24 06:19:21;;;;;;;45.08;21.48;;;7.30;99.90;;;;;;5051936;28;20405;-78
2023/03/24 06:22:02;;;;;;;45.33;22.08;;;7.30;99.90;;;;;;5056221;28;20053;-79
2023/03/24 06:24:35;;;;;;;53.58;23.15;;;7.40;99.90;;;;;;5078562;28;20455;-80
2023/03/24 06:27:08;;;;;;;43.78;22.00;;;7.40;99.90;;;;;;5062612;28;20041;-79
2023/03/24 06:29:37;;;;;;;41.72;21.60;;;7.40;99.90;;;;;;5051077;28;20049;-79
2023/03/24 06:32:05;;;;;;;53.97;23.02;;;7.40;99.90;;;;;;5054359;28;20413;-78
2023/03/24 06:34:40;;;;;;;41.92;21.88;;;7.40;99.90;;;;;;5035957;28;20045;-79
2023/03/24 06:37:27;;;;;;;52.97;26.98;;;7.50;99.90;;;;;;5022372;28;20395;-78
2023/03/24 06:39:56;;;;;;;42.10;23.55;;;7.50;99.90;;;;;;5051132;28;20456;-80
2023/03/24 06:42:27;;;;;;;41.58;23.63;;;7.60;99.90;;;;;;5066415;28;20044;-80
2023/03/24 06:44:54;;;;;;;48.10;22.85;;;7.70;99.90;;;;;;5070252;28;20048;-77
2023/03/24 06:47:22;;;;;;;37.25;20.65;;;7.80;99.90;;;;;;5072016;28;20052;-79
2023/03/24 06:49:52;;;;;;;37.60;19.88;;;7.80;99.90;;;;;;5035191;28;20144;-78
2023/03/24 06:52:19;;;;;;;34.85;21.42;;;7.90;99.90;;;;;;5073265;28;20420;-78
2023/03/24 06:54:49;;;;;;;39.17;21.48;;;8.00;99.90;;;;;;5073092;28;20049;-79
2023/03/24 06:57:16;;;;;;;37.28;19.40;;;8.10;99.90;;;;;;5061315;28;20091;-79
2023/03/24 07:00:10;;;;;;;39.80;19.90;;;8.10;99.90;;;;;;5045577;28;20443;-74
2023/03/24 07:02:49;;;;;;;34.47;18.73;;;8.30;99.90;;;;;;5039533;28;20048;-75
2023/03/24 07:05:17;;;;;;;38.47;19.58;;;8.40;99.90;;;;;;5035480;28;20037;-75
2023/03/24 07:07:45;;;;;;;41.28;19.65;;;8.50;99.90;;;;;;5051620;28;20049;-76
2023/03/24 07:10:29;;;;;;;35.43;19.07;;;8.60;99.90;;;;;;5054467;28;20040;-76
2023/03/24 07:12:58;;;;;;;39.95;19.42;;;8.60;99.90;;;;;;5053988;28;20044;-76
2023/03/24 07:15:26;;;;;;;34.15;19.75;;;8.60;99.90;;;;;;5070973;28;20055;-76
2023/03/24 07:17:55;;;;;;;36.13;19.15;;;8.50;99.90;;;;;;5070927;28;20416;-76
2023/03/24 07:20:41;;;;;;;37.15;22.25;;;8.40;99.90;;;;;;5054914;28;20056;-78
2023/03/24 07:23:21;;;;;;;38.97;20.08;;;8.30;99.90;;;;;;5046709;28;20135;-78
2023/03/24 07:26:15;;;;;;;34.10;18.67;;;8.30;99.90;;;;;;5065079;28;20418;-75
2023/03/24 07:28:50;;;;;;;35.28;18.73;;;8.30;99.90;;;;;;5064054;28;20094;-78
2023/03/24 07:31:36;;;;;;;40.83;20.77;;;8.30;99.90;;;;;;5067706;28;20060;-75
2023/03/24 07:34:11;;;;;;;39.40;20.05;;;8.30;99.90;;;;;;5072085;28;20397;-79
2023/03/24 07:36:40;;;;;;;35.35;18.80;;;8.40;99.90;;;;;;5046439;28;20111;-73
2023/03/24 07:39:13;;;;;;;41.38;20.77;;;8.40;99.90;;;;;;5070003;28;20055;-75
2023/03/24 07:41:42;;;;;;;35.28;20.20;;;8.40;99.90;;;;;;5026417;28;20052;-75
2023/03/24 07:44:21;;;;;;;38.53;21.50;;;8.50;99.90;;;;;;5035684;28;20131;-74
2023/03/24 07:46:56;;;;;;;42.55;21.98;;;8.60;99.90;;;;;;5051950;28;20098;-75
2023/03/24 07:49:23;;;;;;;40.42;20.80;;;8.60;99.90;;;;;;5064528;28;20055;-74
2023/03/24 07:52:05;;;;;;;39.78;22.17;;;8.60;99.90;;;;;;5035629;28;20048;-76
2023/03/24 07:54:38;;;;;;;38.95;21.60;;;8.70;99.90;;;;;;5070489;28;20122;-77
2023/03/24 07:57:11;;;;;;;39.88;21.45;;;8.80;99.90;;;;;;5070821;28;20091;-76
2023/03/24 07:59:39;;;;;;;;;;;8.80;99.90;;;;;;5067178;28;20060;-74
2023/03/24 08:02:27;;;;;;;38.90;19.30;;;8.90;99.90;;;;;;5050320;28;20039;-75
2023/03/24 08:05:19;;;;;;;43.25;20.70;;;9.00;99.90;;;;;;5051084;28;20044;-77
2023/03/24 08:08:07;;;;;;;38.88;20.60;;;9.20;99.90;;;;;;5057739;28;20048;-76
2023/03/24 08:10:35;;;;;;;40.17;21.42;;;9.30;99.90;;;;;;5072121;28;20125;-81
2023/03/24 08:13:04;;;;;;;33.38;19.38;;;9.30;99.90;;;;;;5085871;28;20086;-81
2023/03/24 08:15:32;;;;;;;35.10;18.83;;;9.40;99.90;;;;;;5062652;28;20146;-81
2023/03/24 08:18:04;;;;;;;28.90;18.65;;;9.60;99.90;;;;;;5065333;28;20045;-83
2023/03/24 08:20:32;;;;;;;33.97;20.38;;;9.80;99.90;;;;;;5055051;28;20529;-84
2023/03/24 08:23:03;;;;;;;37.22;19.77;;;10.00;99.90;;;;;;5053864;28;20049;-84
2023/03/24 08:25:32;;;;;;;25.13;13.60;;;10.20;99.90;;;;;;5059894;28;20040;-84
2023/03/24 08:28:00;;;;;;;34.50;16.50;;;10.50;99.90;;;;;;5067530;28;20044;-83
2023/03/24 08:30:32;;;;;;;28.77;16.33;;;10.50;99.90;;;;;;5063095;28;20067;-83
2023/03/24 08:33:12;;;;;;;23.95;14.77;;;10.40;99.90;;;;;;5060826;28;20053;-84
2023/03/24 08:35:56;;;;;;;28.77;15.68;;;10.30;99.90;;;;;;5071047;28;20067;-83
2023/03/24 08:38:29;;;;;;;29.70;16.42;;;10.40;99.90;;;;;;5073500;28;20206;-86
2023/03/24 08:41:00;;;;;;;27.42;15.48;;;10.40;99.90;;;;;;5071359;28;20049;-84
2023/03/24 08:43:30;;;;;;;23.83;13.60;;;10.40;99.90;;;;;;5042880;28;20056;-78
2023/03/24 08:46:00;;;;;;;28.88;14.15;;;10.30;99.90;;;;;;5057022;28;20045;-78
2023/03/24 08:48:31;;;;;;;25.13;13.95;;;10.40;99.90;;;;;;5064685;28;20075;-79
2023/03/24 08:51:12;;;;;;;36.15;16.23;;;10.30;99.90;;;;;;5066104;28;20049;-79
2023/03/24 08:53:42;;;;;;;28.42;15.63;;;10.20;99.90;;;;;;5063838;28;20055;-78
2023/03/24 08:56:10;;;;;;;27.13;15.55;;;10.00;99.90;;;;;;5065327;28;20048;-79
2023/03/24 08:58:38;;;;;;;32.33;16.38;;;9.90;99.90;;;;;;5070774;28;20045;-77
2023/03/24 09:01:09;;;;;;;30.67;17.33;;;9.80;99.90;;;;;;5052582;28;20044;-78
2023/03/24 09:03:38;;;;;;;28.20;16.40;;;9.80;99.90;;;;;;5051367;28;20578;-78
2023/03/24 09:06:07;;;;;;;31.27;16.45;;;9.90;99.90;;;;;;5070604;28;20060;-78
2023/03/24 09:08:34;;;;;;;30.55;14.98;;;9.90;99.90;;;;;;5071206;28;20044;-78
2023/03/24 09:11:05;;;;;;;28.23;15.70;;;9.90;99.90;;;;;;5067065;28;20067;-77
2023/03/24 09:13:33;;;;;;;28.60;14.88;;;9.90;99.90;;;;;;5074518;28;20144;-78
2023/03/24 09:16:04;;;;;;;26.83;14.07;;;9.90;99.90;;;;;;5071251;28;20052;-78
2023/03/24 09:18:36;;;;;;;27.35;14.45;;;9.90;99.90;;;;;;5057715;28;20049;-78
2023/03/24 09:21:05;;;;;;;24.85;15.68;;;9.90;99.90;;;;;;5067819;28;20406;-83
2023/03/24 09:23:42;;;;;;;26.95;15.13;;;9.90;99.90;;;;;;5045487;28;20049;-83
2023/03/24 09:26:15;;;;;;;23.40;14.60;;;9.80;99.90;;;;;;5071693;28;20056;-80
2023/03/24 09:28:43;;;;;;;21.25;13.75;;;9.90;99.90;;;;;;5046748;28;20472;-81
2023/03/24 09:31:11;;;;;;;22.40;16.08;;;10.00;99.90;;;;;;5071038;28;20080;-82
2023/03/24 09:33:41;;;;;;;23.13;14.57;;;9.90;99.90;;;;;;5056682;28;20068;-81
2023/03/24 09:36:10;;;;;;;29.13;16.60;;;9.80;99.90;;;;;;5051566;28;20056;-79
2023/03/24 09:38:38;;;;;;;27.00;15.80;;;9.70;99.90;;;;;;5060199;28;20111;-81
2023/03/24 09:41:17;;;;;;;28.65;17.05;;;9.50;99.90;;;;;;5069600;28;20094;-82
2023/03/24 09:43:50;;;;;;;25.42;16.35;;;9.40;99.90;;;;;;5067466;28;20052;-79
2023/03/24 09:46:28;;;;;;;32.88;18.95;;;9.40;99.90;;;;;;5062805;28;20032;-79
2023/03/24 09:49:00;;;;;;;34.28;20.45;;;9.30;99.90;;;;;;5062745;28;20513;-78
2023/03/24 09:51:30;;;;;;;36.10;21.00;;;9.30;99.90;;;;;;5067202;28;20048;-80
2023/03/24 09:54:09;;;;;;;34.42;21.08;;;9.20;99.90;;;;;;5063520;28;20400;-80
2023/03/24 09:56:43;;;;;;;44.25;21.98;;;9.20;99.90;;;;;;5063077;28;20102;-78
2023/03/24 09:59:18;;;;;;;44.95;22.50;;;9.10;99.90;;;;;;5063359;28;20044;-81
2023/03/24 10:01:51;;;;;;;42.70;22.90;;;9.10;99.90;;;;;;5065130;28;20125;-80
2023/03/24 10:04:25;;;;;;;54.07;24.13;;;9.10;99.90;;;;;;5069465;28;20055;-80
2023/03/24 10:07:04;;;;;;;41.20;22.83;;;9.10;99.90;;;;;;5068936;28;20114;-80
2023/03/24 10:09:35;;;;;;;40.17;22.60;;;9.20;99.90;;;;;;5066048;28;20057;-80
2023/03/24 10:12:25;;;;;;;37.15;22.70;;;9.30;99.90;;;;;;5052111;28;20054;-82
2023/03/24 10:15:14;;;;;;;33.75;20.45;;;9.40;99.90;;;;;;5065300;28;20127;-78
2023/03/24 10:18:05;;;;;;;36.00;22.58;;;9.50;99.90;;;;;;5070353;28;20051;-79
2023/03/24 10:20:41;;;;;;;34.10;23.00;;;9.80;99.90;;;;;;5068965;28;20048;-79
2023/03/24 10:23:22;;;;;;;41.13;21.45;;;10.40;99.90;;;;;;5067793;28;20579;-79
2023/03/24 10:25:56;;;;;;;34.50;19.38;;;11.70;99.90;;;;;;5068783;28;20136;-78
2023/03/24 10:28:30;;;;;;;34.33;19.92;;;12.90;99.90;;;;;;5069931;28;20044;-78
2023/03/24 10:31:03;;;;;;;32.35;18.67;;;13.40;99.90;;;;;;5068151;28;20071;-80
2023/03/24 10:33:31;;;;;;;37.90;21.05;;;14.00;99.90;;;;;;5064546;28;20150;-80
2023/03/24 10:36:06;;;;;;;22.38;16.90;;;14.40;99.90;;;;;;5064788;28;20044;-78
2023/03/24 10:38:37;;;;;;;26.88;18.25;;;;;;;;;;5065812;28;20052;-79
2023/03/24 10:41:06;;;;;;;30.00;19.52;;;13.90;99.90;;;;;;5047336;28;20735;-79
2023/03/24 10:43:34;;;;;;;26.10;18.17;;;13.40;99.90;;;;;;5066993;28;20047;-79
2023/03/24 10:46:03;;;;;;;27.95;19.58;;;13.00;99.90;;;;;;5067674;28;20135;-79
2023/03/24 10:48:44;;;;;;;28.45;18.48;;;12.50;99.90;;;;;;5070179;28;20135;-79
2023/03/24 10:51:18;;;;;;;29.17;19.40;;;12.10;99.90;;;;;;5065599;28;20072;-79
2023/03/24 10:53:52;;;;;;;29.13;18.58;;;11.60;99.90;;;;;;5068012;28;20493;-79
2023/03/24 10:56:40;;;;;;;26.63;15.43;;;11.50;99.90;;;;;;5071287;28;20143;-80
2023/03/24 10:59:21;;;;;;;22.90;15.63;;;11.50;99.90;;;;;;5070379;28;20044;-80
2023/03/24 11:01:51;;;;;;;21.77;14.35;;;11.50;99.90;;;;;;5048513;28;20191;-79
2023/03/24 11:04:20;;;;;;;21.75;13.32;;;11.40;99.90;;;;;;5069972;28;20060;-78
2023/03/24 11:07:04;;;;;;;20.98;12.73;;;11.20;99.90;;;;;;5070611;28;20105;-81
2023/03/24 11:09:43;;;;;;;17.52;10.80;;;10.90;99.90;;;;;;5070312;28;20044;-78
2023/03/24 11:12:26;;;;;;;21.20;13.25;;;10.60;99.90;;;;;;5052395;28;20049;-79
2023/03/24 11:15:03;;;;;;;;;;;10.20;99.90;;;;;;5070707;28;20058;-80
2023/03/24 11:17:31;;;;;;;21.45;13.05;;;10.00;99.90;;;;;;5069929;28;19955;-78
2023/03/24 11:19:58;;;;;;;17.27;10.88;;;9.90;99.90;;;;;;5067292;28;20055;-79
2023/03/24 11:22:30;;;;;;;17.63;9.77;;;9.90;99.90;;;;;;5070058;28;20052;-78
2023/03/24 11:24:58;;;;;;;12.55;8.82;;;9.90;99.90;;;;;;5062713;28;20052;-80
2023/03/24 11:27:26;;;;;;;11.10;7.88;;;9.90;99.90;;;;;;5066441;28;20161;-78
2023/03/24 11:29:55;;;;;;;10.80;7.32;;;9.80;99.90;;;;;;5074694;28;20051;-79
2023/03/24 11:32:25;;;;;;;8.70;7.20;;;9.90;99.90;;;;;;5067487;28;20044;-78
2023/03/24 11:35:06;;;;;;;9.40;7.03;;;10.00;99.90;;;;;;5068344;28;20551;-80
2023/03/24 11:37:37;;;;;;;13.70;7.07;;;10.10;99.90;;;;;;5068059;28;20048;-79
2023/03/24 11:40:18;;;;;;;7.03;5.90;;;10.20;99.90;;;;;;5053250;28;20147;-80
2023/03/24 11:42:50;;;;;;;9.23;6.25;;;10.20;99.90;;;;;;5057586;28;20521;-81
2023/03/24 11:45:25;;;;;;;9.85;6.95;;;10.30;99.90;;;;;;5036195;28;20040;-80
2023/03/24 11:47:57;;;;;;;8.60;6.00;;;10.30;99.90;;;;;;5044355;28;20056;-79
2023/03/24 11:50:31;;;;;;;7.85;5.68;;;10.30;99.90;;;;;;5066465;28;20044;-81
2023/03/24 11:53:07;;;;;;;9.05;6.47;;;10.30;99.90;;;;;;5065204;28;20140;-79
2023/03/24 11:55:39;;;;;;;7.40;6.60;;;10.30;99.90;;;;;;5064035;28;20055;-78
2023/03/24 11:58:18;;;;;;;7.45;5.22;;;10.50;99.90;;;;;;5062637;28;20520;-78
2023/03/24 12:00:56;;;;;;;7.70;6.85;;;10.70;99.90;;;;;;5074072;28;20105;-78
2023/03/24 12:03:52;;;;;;;9.35;5.97;;;10.90;99.90;;;;;;5067086;28;20053;-81
2023/03/24 12:06:40;;;;;;;8.90;5.13;;;11.00;99.90;;;;;;5064808;28;20048;-79
2023/03/24 12:09:22;;;;;;;10.00;6.60;;;10.80;99.90;;;;;;5062862;28;20067;-79
2023/03/24 12:12:07;;;;;;;18.30;10.30;;;10.60;99.90;;;;;;5066742;28;20048;-78
2023/03/24 12:14:51;;;;;;;20.25;8.75;;;10.40;99.90;;;;;;5030570;28;20639;-78
2023/03/24 12:17:24;;;;;;;21.67;8.13;;;10.30;99.90;;;;;;5066642;28;20036;-79
2023/03/24 12:20:16;;;;;;;14.23;7.38;;;10.30;99.90;;;;;;5063654;28;20179;-78
2023/03/24 12:23:00;;;;;;;12.68;6.65;;;10.10;99.90;;;;;;5065051;28;20049;-77
2023/03/24 12:25:42;;;;;;;11.13;6.55;;;10.00;99.90;;;;;;5064708;28;20048;-80
2023/03/24 12:28:45;;;;;;;6.97;5.47;;;10.00;99.90;;;;;;5071011;28;20463;-84
2023/03/24 12:31:46;;;;;;;6.63;5.07;;;10.00;99.90;;;;;;5057206;28;20055;-78
2023/03/24 12:34:41;;;;;;;6.43;5.30;;;10.10;99.90;;;;;;5068647;28;20129;-79
2023/03/24 12:37:21;;;;;;;20.73;6.30;;;10.10;99.90;;;;;;5052189;28;20056;-80
2023/03/24 12:39:59;;;;;;;12.57;5.63;;;10.20;99.90;;;;;;5066257;28;20339;-80
2023/03/24 12:42:35;;;;;;;8.88;5.18;;;10.20;99.90;;;;;;5068386;28;20533;-80
2023/03/24 12:45:26;;;;;;;7.72;4.70;;;10.20;99.90;;;;;;5065282;28;20089;-81
2023/03/24 12:48:22;;;;;;;9.50;4.88;;;10.20;99.90;;;;;;5068515;28;20063;-80
2023/03/24 12:51:05;;;;;;;10.57;5.13;;;10.20;99.90;;;;;;5047441;28;20055;-78
2023/03/24 12:53:52;;;;;;;8.93;5.07;;;10.20;99.90;;;;;;5058761;28;20048;-79
2023/03/24 12:56:26;;;;;;;10.13;4.93;;;10.20;99.90;;;;;;5070939;28;20051;-80
2023/03/24 12:58:59;;;;;;;12.52;4.72;;;10.30;99.90;;;;;;5072458;28;20048;-79
2023/03/24 13:01:32;;;;;;;10.70;4.63;;;10.30;99.90;;;;;;5068318;28;20076;-80
2023/03/24 13:04:08;;;;;;;7.28;4.28;;;10.40;99.90;;;;;;5067966;28;20560;-81
2023/03/24 13:06:45;;;;;;;8.55;4.40;;;10.60;99.90;;;;;;5065237;28;20223;-81
2023/03/24 13:09:24;;;;;;;8.82;5.07;;;10.60;99.90;;;;;;5050574;28;20131;-80
2023/03/24 13:11:58;;;;;;;11.07;5.40;;;10.50;99.90;;;;;;5079270;28;20055;-80
2023/03/24 13:14:34;;;;;;;8.00;4.10;;;10.40;99.90;;;;;;5073555;28;20572;-82
2023/03/24 13:17:11;;;;;;;7.22;5.07;;;10.30;99.90;;;;;;5067549;28;20101;-80
2023/03/24 13:19:40;;;;;;;5.20;4.65;;;10.20;99.90;;;;;;5068816;28;20366;-81
2023/03/24 13:22:15;;;;;;;9.45;5.18;;;10.10;99.90;;;;;;5070023;28;20056;-82
2023/03/24 13:24:44;;;;;;;5.18;4.15;;;9.90;99.90;;;;;;5068154;28;20275;-81
2023/03/24 13:27:20;;;;;;;4.32;3.92;;;9.80;99.90;;;;;;5065080;28;20080;-83